createdAt,value
2023-04-10T00:01:17.562Z,101832.56
2023-04-10T00:03:44.872Z,101823.72
2023-04-10T00:06:12.025Z,101828.22
2023-04-10T00:08:39.085Z,101826.69
2023-04-10T00:11:06.284Z,101825.16
2023-04-10T00:13:33.270Z,101824.28
2023-04-10T00:16:00.527Z,101816.38
2023-04-10T00:18:27.646Z,101811.94
2023-04-10T00:20:55.163Z,101815.75
2023-04-10T00:23:22.116Z,101809.75
2023-04-10T00:25:49.245Z,101808.00
2023-04-10T00:28:17.308Z,101806.50
2023-04-10T00:30:44.331Z,101807.41
2023-04-10T00:33:11.491Z,101801.28
2023-04-10T00:35:38.590Z,101804.94
2023-04-10T00:38:05.744Z,101799.69
2023-04-10T00:40:32.909Z,101798.25
2023-04-10T00:43:00.620Z,101794.78
2023-04-10T00:45:28.097Z,101796.44
2023-04-10T00:47:56.035Z,101792.31
2023-04-10T00:50:23.738Z,101798.59
2023-04-10T00:52:51.693Z,101796.06
2023-04-10T00:55:19.074Z,101799.66
2023-04-10T00:57:47.234Z,101790.75
2023-04-10T01:00:16.010Z,101796.19
2023-04-10T01:02:43.492Z,101796.31
2023-04-10T01:05:13.086Z,101797.22
2023-04-10T01:08:18.661Z,101802.91
2023-04-10T01:11:19.433Z,101800.25
2023-04-10T01:13:57.709Z,101801.22
2023-04-10T01:16:36.559Z,101811.00
2023-04-10T01:19:22.921Z,101803.97
2023-04-10T01:21:53.718Z,101801.31
2023-04-10T01:24:29.521Z,101802.91
2023-04-10T01:27:37.262Z,101796.34
2023-04-10T01:30:06.878Z,101798.91
2023-04-10T01:32:37.204Z,101798.06
2023-04-10T01:35:08.107Z,101798.16
2023-04-10T01:37:39.141Z,101810.78
2023-04-10T01:40:11.632Z,101800.94
2023-04-10T01:42:51.735Z,101793.06
2023-04-10T01:45:23.816Z,101797.78
2023-04-10T01:47:53.079Z,101797.78
2023-04-10T01:50:25.051Z,101803.13
2023-04-10T01:52:56.946Z,101807.72
2023-04-10T01:55:27.771Z,101805.94
2023-04-10T01:58:01.604Z,101801.44
2023-04-10T02:00:29.521Z,101810.16
2023-04-10T02:02:58.743Z,101804.81
2023-04-10T02:05:36.650Z,101808.53
2023-04-10T02:08:16.529Z,101813.06
2023-04-10T02:11:04.467Z,101817.47
2023-04-10T02:13:36.270Z,101814.75
2023-04-10T02:16:08.527Z,101818.16
2023-04-10T02:18:37.420Z,101812.25
2023-04-10T02:21:06.263Z,101818.66
2023-04-10T02:23:33.933Z,101816.94
2023-04-10T02:26:07.954Z,101818.59
2023-04-10T02:28:38.085Z,101821.25
2023-04-10T02:31:07.734Z,101820.41
2023-04-10T02:33:34.890Z,101820.72
2023-04-10T02:36:02.261Z,101816.03
2023-04-10T02:38:29.289Z,101820.50
2023-04-10T02:40:56.361Z,101822.28
2023-04-10T02:43:23.484Z,101829.34
2023-04-10T02:45:51.314Z,101828.47
2023-04-10T02:48:25.820Z,101822.28
2023-04-10T02:50:59.914Z,101819.03
2023-04-10T02:53:29.171Z,101813.56
2023-04-10T02:55:59.284Z,101820.63
2023-04-10T02:58:30.551Z,101814.63
2023-04-10T03:00:58.909Z,101822.81
2023-04-10T03:03:40.106Z,101823.00
2023-04-10T03:06:09.644Z,101826.84
2023-04-10T03:08:37.842Z,101827.19
2023-04-10T03:11:06.533Z,101828.25
2023-04-10T03:13:33.576Z,101831.03
2023-04-10T03:16:01.121Z,101824.00
2023-04-10T03:18:28.224Z,101826.72
2023-04-10T03:20:56.414Z,101826.84
2023-04-10T03:23:23.523Z,101826.97
2023-04-10T03:25:55.267Z,101826.28
2023-04-10T03:28:26.281Z,101825.53
2023-04-10T03:30:53.353Z,101820.41
2023-04-10T03:33:20.383Z,101830.38
2023-04-10T03:35:47.859Z,101830.53
2023-04-10T03:38:15.057Z,101828.78
2023-04-10T03:40:42.096Z,101827.03
2023-04-10T03:43:11.054Z,101827.09
2023-04-10T03:45:38.629Z,101828.84
2023-04-10T03:48:07.267Z,101827.84
2023-04-10T03:50:41.625Z,101830.56
2023-04-10T03:53:08.868Z,101825.38
2023-04-10T03:55:36.956Z,101825.41
2023-04-10T03:58:05.835Z,101826.47
2023-04-10T04:00:33.764Z,101827.50
2023-04-10T04:03:10.293Z,101825.75
2023-04-10T04:06:01.304Z,101829.56
2023-04-10T04:08:38.714Z,101832.34
2023-04-10T04:11:08.731Z,101831.59
2023-04-10T04:13:51.917Z,101840.56
2023-04-10T04:16:37.476Z,101846.00
2023-04-10T04:19:27.731Z,101847.97
2023-04-10T04:22:12.288Z,101849.88
2023-04-10T04:24:58.388Z,101852.63
2023-04-10T04:28:03.739Z,101865.97
2023-04-10T04:30:33.448Z,101872.19
2023-04-10T04:33:17.722Z,101866.97
2023-04-10T04:36:00.110Z,101882.94
2023-04-10T04:38:58.948Z,101887.44
2023-04-10T04:41:43.435Z,101887.50
2023-04-10T04:44:28.664Z,101883.13
2023-04-10T04:47:04.249Z,101889.41
2023-04-10T04:49:54.188Z,101886.84
2023-04-10T04:52:39.721Z,101896.72
2023-04-10T04:55:32.701Z,101899.50
2023-04-10T04:58:21.304Z,101904.06
2023-04-10T05:00:57.369Z,101907.56
2023-04-10T05:03:31.341Z,101911.16
2023-04-10T05:06:26.264Z,101913.88
2023-04-10T05:09:22.674Z,101915.69
2023-04-10T05:12:21.822Z,101913.88
2023-04-10T05:14:56.581Z,101911.16
2023-04-10T05:17:40.945Z,101917.31
2023-04-10T05:20:37.158Z,101925.25
2023-04-10T05:23:33.544Z,101924.34
2023-04-10T05:26:20.977Z,101917.13
2023-04-10T05:28:53.033Z,101925.97
2023-04-10T05:31:46.804Z,101925.94
2023-04-10T05:34:21.791Z,101927.59
2023-04-10T05:37:09.438Z,101927.56
2023-04-10T05:39:44.065Z,101933.69
2023-04-10T05:42:23.385Z,101938.06
2023-04-10T05:45:15.263Z,101935.25
2023-04-10T05:48:05.221Z,101933.41
2023-04-10T05:50:52.962Z,101936.81
2023-04-10T05:53:42.141Z,101937.50
2023-04-10T05:56:27.453Z,101941.81
2023-04-10T05:59:13.567Z,101941.63
2023-04-10T06:01:59.706Z,101937.84
2023-04-10T06:04:28.678Z,101949.25
2023-04-10T06:06:58.271Z,101946.56
2023-04-10T06:09:25.804Z,101948.16
2023-04-10T06:11:53.612Z,101947.91
2023-04-10T06:14:23.287Z,101944.28
2023-04-10T06:16:50.732Z,101947.91
2023-04-10T06:19:17.995Z,101946.78
2023-04-10T06:21:45.589Z,101948.09
2023-04-10T06:24:13.937Z,101949.31
2023-04-10T06:26:41.168Z,101944.81
2023-04-10T06:29:09.888Z,101945.38
2023-04-10T06:31:37.338Z,101939.28
2023-04-10T06:34:04.357Z,101943.59
2023-04-10T06:36:33.144Z,101949.44
2023-04-10T06:39:04.303Z,101948.28
2023-04-10T06:41:31.339Z,101950.84
2023-04-10T06:44:07.557Z,101957.03
2023-04-10T06:46:34.650Z,101954.13
2023-04-10T06:49:02.057Z,101953.75
2023-04-10T06:51:29.332Z,101952.66
2023-04-10T06:53:56.309Z,101955.97
2023-04-10T06:56:23.334Z,101954.03
2023-04-10T06:58:51.378Z,101948.66
2023-04-10T07:01:19.757Z,101954.56
2023-04-10T07:03:47.886Z,101956.59
2023-04-10T07:06:15.282Z,101951.13
2023-04-10T07:08:42.543Z,101954.44
2023-04-10T07:11:09.729Z,101948.94
2023-04-10T07:13:39.158Z,101957.28
2023-04-10T07:16:08.585Z,101951.56
2023-04-10T07:18:35.982Z,101957.34
2023-04-10T07:21:03.855Z,101949.91
2023-04-10T07:23:31.242Z,101959.28
2023-04-10T07:25:58.398Z,101953.59
2023-04-10T07:28:25.472Z,101948.88
2023-04-10T07:30:55.594Z,101954.81
2023-04-10T07:33:22.731Z,101962.63
2023-04-10T07:35:49.797Z,101956.16
2023-04-10T07:38:18.948Z,101964.88
2023-04-10T07:40:45.986Z,101968.88
2023-04-10T07:43:13.180Z,101972.16
2023-04-10T07:45:41.303Z,101974.44
2023-04-10T07:48:08.451Z,101971.47
2023-04-10T07:50:36.332Z,101978.50
2023-04-10T07:53:07.968Z,101975.44
2023-04-10T07:55:44.444Z,101970.63
2023-04-10T07:58:12.958Z,101968.72
2023-04-10T08:00:40.999Z,101967.50
2023-04-10T08:03:08.651Z,101973.28
2023-04-10T08:05:36.456Z,101973.03
2023-04-10T08:08:03.467Z,101973.78
2023-04-10T08:10:30.860Z,101976.16
2023-04-10T08:12:57.908Z,101978.06
2023-04-10T08:15:25.053Z,101979.16
2023-04-10T08:17:52.319Z,101975.25
2023-04-10T08:20:20.086Z,101976.63
2023-04-10T08:22:47.376Z,101975.44
2023-04-10T08:25:15.109Z,101976.09
2023-04-10T08:27:42.474Z,101974.84
2023-04-10T08:30:10.344Z,101970.16
2023-04-10T08:32:38.887Z,101980.41
2023-04-10T08:35:06.757Z,101977.44
2023-04-10T08:37:33.752Z,101974.75
2023-04-10T08:40:00.682Z,101981.47
2023-04-10T08:42:28.072Z,101974.09
2023-04-10T08:44:55.714Z,101973.84
2023-04-10T08:47:28.332Z,101981.50
2023-04-10T08:49:58.157Z,101975.97
2023-04-10T08:52:29.339Z,101972.13
2023-04-10T08:55:00.022Z,101976.38
2023-04-10T08:57:28.102Z,101976.88
2023-04-10T08:59:55.812Z,101982.81
2023-04-10T09:02:25.558Z,101977.34
2023-04-10T09:04:56.361Z,101970.09
2023-04-10T09:07:27.134Z,101983.38
2023-04-10T09:09:54.306Z,101981.06
2023-04-10T09:12:21.529Z,101986.03
2023-04-10T09:14:53.335Z,101976.78
2023-04-10T09:17:23.607Z,101977.22
2023-04-10T09:19:54.485Z,101985.13
2023-04-10T09:22:36.748Z,101968.75
2023-04-10T09:25:05.653Z,101971.81
2023-04-10T09:27:35.739Z,101968.94
2023-04-10T09:30:04.832Z,101971.25
2023-04-10T09:32:40.905Z,101972.38
2023-04-10T09:35:11.178Z,101976.41
2023-04-10T09:37:40.957Z,101962.63
2023-04-10T09:40:22.965Z,101973.97
2023-04-10T09:42:50.833Z,101967.22
2023-04-10T09:45:22.574Z,101970.38
2023-04-10T09:48:07.886Z,101970.72
2023-04-10T09:50:41.180Z,101967.22
2023-04-10T09:53:12.033Z,101959.41
2023-04-10T09:55:41.349Z,101962.38
2023-04-10T09:58:09.943Z,101964.38
2023-04-10T10:00:44.688Z,101955.94
2023-04-10T10:03:18.020Z,101946.06
2023-04-10T10:05:51.171Z,101941.44
2023-04-10T10:08:18.774Z,101937.34
2023-04-10T10:10:55.104Z,101935.44
2023-04-10T10:13:31.390Z,101931.41
2023-04-10T10:16:13.402Z,101933.56
2023-04-10T10:19:21.102Z,101924.03
2023-04-10T10:21:48.930Z,101915.09
2023-04-10T10:24:21.760Z,101923.72
2023-04-10T10:26:50.528Z,101919.06
2023-04-10T10:29:18.851Z,101915.03
2023-04-10T10:31:47.985Z,101910.31
2023-04-10T10:34:16.601Z,101905.25
2023-04-10T10:36:43.751Z,101916.41
2023-04-10T10:39:33.331Z,101922.97
2023-04-10T10:42:24.309Z,101911.34
2023-04-10T10:45:12.385Z,101917.22
2023-04-10T10:47:46.074Z,101905.94
2023-04-10T10:50:16.622Z,101908.84
2023-04-10T10:52:56.043Z,101903.72
2023-04-10T10:55:24.112Z,101899.66
2023-04-10T10:58:07.802Z,101902.19
2023-04-10T11:00:50.914Z,101902.28
2023-04-10T11:03:18.360Z,101890.78
2023-04-10T11:05:56.292Z,101890.91
2023-04-10T11:08:47.683Z,101876.91
2023-04-10T11:11:20.296Z,101884.41
2023-04-10T11:13:51.827Z,101880.34
2023-04-10T11:16:21.725Z,101880.69
2023-04-10T11:19:13.204Z,101882.97
2023-04-10T11:22:00.438Z,101885.94
2023-04-10T11:24:28.470Z,101882.06
2023-04-10T11:26:56.313Z,101875.78
2023-04-10T11:29:29.412Z,101874.19
2023-04-10T11:32:02.371Z,101868.47
2023-04-10T11:34:31.936Z,101868.25
2023-04-10T11:37:03.046Z,101865.69
2023-04-10T11:39:31.579Z,101867.50
2023-04-10T11:41:58.712Z,101860.28
2023-04-10T11:44:25.648Z,101858.34
2023-04-10T11:46:53.494Z,101845.38
2023-04-10T11:49:26.546Z,101838.34
2023-04-10T11:51:53.973Z,101839.63
2023-04-10T11:54:29.685Z,101829.25
2023-04-10T11:57:03.118Z,101820.28
2023-04-10T11:59:32.897Z,101820.72
2023-04-10T12:02:09.990Z,101813.47
2023-04-10T12:04:37.975Z,101820.19
2023-04-10T12:07:05.109Z,101815.88
2023-04-10T12:09:33.404Z,101819.00
2023-04-10T12:12:10.081Z,101814.66
2023-04-10T12:14:40.057Z,101808.22
2023-04-10T12:17:10.452Z,101801.19
2023-04-10T12:19:39.365Z,101805.34
2023-04-10T12:22:06.811Z,101808.00
2023-04-10T12:25:03.555Z,101796.38
2023-04-10T12:27:30.752Z,101807.13
2023-04-10T12:29:59.032Z,101802.34
2023-04-10T12:32:27.766Z,101803.66
2023-04-10T12:35:03.001Z,101797.91
2023-04-10T12:37:48.553Z,101801.50
2023-04-10T12:40:15.790Z,101798.09
2023-04-10T12:42:43.368Z,101779.56
2023-04-10T12:45:13.922Z,101786.13
2023-04-10T12:47:51.946Z,101785.66
2023-04-10T12:50:21.089Z,101788.63
2023-04-10T12:53:09.191Z,101784.22
2023-04-10T12:55:36.199Z,101779.97
2023-04-10T12:58:18.325Z,101780.50
2023-04-10T13:00:47.070Z,101775.22
2023-04-10T13:03:14.215Z,101780.16
2023-04-10T13:05:41.345Z,101771.63
2023-04-10T13:08:08.572Z,101773.22
2023-04-10T13:10:38.375Z,101775.84
2023-04-10T13:13:07.322Z,101767.56
2023-04-10T13:15:35.087Z,101762.97
2023-04-10T13:18:05.158Z,101762.19
2023-04-10T13:20:36.301Z,101770.28
2023-04-10T13:23:04.366Z,101763.78
2023-04-10T13:25:39.946Z,101758.69
2023-04-10T13:28:15.854Z,101761.41
2023-04-10T13:30:43.137Z,101757.00
2023-04-10T13:33:10.461Z,101754.75
2023-04-10T13:35:41.011Z,101751.19
2023-04-10T13:38:09.598Z,101752.94
2023-04-10T13:40:36.821Z,101741.22
2023-04-10T13:43:03.974Z,101743.34
2023-04-10T13:45:31.043Z,101736.56
2023-04-10T13:47:58.094Z,101739.88
2023-04-10T13:50:25.445Z,101730.88
2023-04-10T13:52:53.857Z,101718.47
2023-04-10T13:55:24.772Z,101718.59
2023-04-10T13:57:52.391Z,101720.41
2023-04-10T14:00:19.992Z,101711.78
2023-04-10T14:02:47.252Z,101715.75
2023-04-10T14:05:14.372Z,101714.00
2023-04-10T14:07:41.428Z,101708.91
2023-04-10T14:10:09.949Z,101703.97
2023-04-10T14:12:38.050Z,101707.03
2023-04-10T14:15:05.995Z,101708.25
2023-04-10T14:17:32.960Z,101702.03
2023-04-10T14:20:00.220Z,101697.31
2023-04-10T14:22:27.846Z,101699.78
2023-04-10T14:25:05.278Z,101685.34
2023-04-10T14:27:39.197Z,101684.56
2023-04-10T14:30:22.232Z,101671.63
2023-04-10T14:32:49.319Z,101670.53
2023-04-10T14:35:17.131Z,101676.53
2023-04-10T14:37:44.389Z,101682.72
2023-04-10T14:40:11.753Z,101670.69
2023-04-10T14:42:38.763Z,101674.41
2023-04-10T14:45:06.528Z,101669.34
2023-04-10T14:47:33.757Z,101668.13
2023-04-10T14:50:00.786Z,101665.16
2023-04-10T14:52:27.937Z,101662.56
2023-04-10T14:54:54.904Z,101660.59
2023-04-10T14:57:22.229Z,101664.59
2023-04-10T14:59:56.398Z,101668.28
2023-04-10T15:02:23.646Z,101657.44
2023-04-10T15:04:53.285Z,101659.81
2023-04-10T15:07:20.512Z,101661.00
2023-04-10T15:09:48.011Z,101654.97
2023-04-10T15:12:15.366Z,101653.84
2023-04-10T15:14:42.451Z,101656.38
2023-04-10T15:17:09.711Z,101654.00
2023-04-10T15:19:36.758Z,101641.72
2023-04-10T15:22:03.751Z,101650.09
2023-04-10T15:24:39.904Z,101633.84
2023-04-10T15:27:10.586Z,101631.47
2023-04-10T15:29:40.054Z,101636.91
2023-04-10T15:32:07.235Z,101635.09
2023-04-10T15:34:34.406Z,101637.91
2023-04-10T15:37:01.554Z,101636.06
2023-04-10T15:39:30.891Z,101643.94
2023-04-10T15:42:00.241Z,101645.66
2023-04-10T15:44:27.274Z,101642.22
2023-04-10T15:46:54.594Z,101640.50
2023-04-10T15:49:33.948Z,101650.59
2023-04-10T15:52:06.452Z,101638.91
2023-04-10T15:54:34.731Z,101641.84
2023-04-10T15:57:02.450Z,101635.44
2023-04-10T15:59:30.196Z,101635.94
2023-04-10T16:01:57.289Z,101638.03
2023-04-10T16:04:24.882Z,101645.47
2023-04-10T16:06:52.049Z,101640.91
2023-04-10T16:09:25.690Z,101646.56
2023-04-10T16:11:54.559Z,101647.41
2023-04-10T16:14:22.684Z,101642.13
2023-04-10T16:16:49.926Z,101649.38
2023-04-10T16:19:17.180Z,101644.09
2023-04-10T16:21:44.259Z,101644.34
2023-04-10T16:24:11.853Z,101639.31
2023-04-10T16:26:38.988Z,101642.28
2023-04-10T16:29:06.571Z,101643.47
2023-04-10T16:31:33.646Z,101635.50
2023-04-10T16:34:01.356Z,101638.56
2023-04-10T16:36:28.473Z,101637.22
2023-04-10T16:38:55.696Z,101641.88
2023-04-10T16:41:23.101Z,101636.72
2023-04-10T16:43:50.304Z,101632.53
2023-04-10T16:46:17.486Z,101637.41
2023-04-10T16:48:44.546Z,101625.38
2023-04-10T16:51:18.026Z,101630.03
2023-04-10T16:53:45.406Z,101634.09
2023-04-10T16:56:12.686Z,101628.94
2023-04-10T16:58:42.048Z,101625.59
2023-04-10T17:01:19.090Z,101625.84
2023-04-10T17:03:48.339Z,101620.69
2023-04-10T17:06:16.210Z,101614.75
2023-04-10T17:08:58.221Z,101608.09
2023-04-10T17:11:31.296Z,101612.03
2023-04-10T17:13:58.365Z,101611.41
2023-04-10T17:16:25.414Z,101613.50
2023-04-10T17:18:52.603Z,101608.34
2023-04-10T17:21:20.460Z,101607.81
2023-04-10T17:23:48.897Z,101603.75
2023-04-10T17:26:16.928Z,101597.72
2023-04-10T17:28:46.272Z,101605.31
2023-04-10T17:31:14.019Z,101599.31
2023-04-10T17:33:44.317Z,101598.78
2023-04-10T17:36:13.014Z,101601.72
2023-04-10T17:38:41.802Z,101599.44
2023-04-10T17:41:10.242Z,101599.81
2023-04-10T17:43:37.351Z,101602.97
2023-04-10T17:46:04.825Z,101596.19
2023-04-10T17:48:32.467Z,101611.00
2023-04-10T17:50:59.542Z,101610.50
2023-04-10T17:53:26.753Z,101612.69
2023-04-10T17:55:53.807Z,101614.13
2023-04-10T17:58:21.397Z,101616.19
2023-04-10T18:01:03.384Z,101613.84
2023-04-10T18:03:32.168Z,101607.91
2023-04-10T18:06:01.482Z,101609.97
2023-04-10T18:08:28.716Z,101618.53
2023-04-10T18:10:55.868Z,101620.69
2023-04-10T18:13:22.859Z,101634.75
2023-04-10T18:15:49.768Z,101636.19
2023-04-10T18:18:16.747Z,101632.00
2023-04-10T18:20:44.038Z,101647.59
2023-04-10T18:23:11.237Z,101642.44
2023-04-10T18:25:38.232Z,101647.31
2023-04-10T18:28:14.463Z,101644.91
2023-04-10T18:30:43.077Z,101654.31
2023-04-10T18:33:11.506Z,101653.88
2023-04-10T18:35:38.882Z,101658.75
2023-04-10T18:38:06.283Z,101650.00
2023-04-10T18:40:34.638Z,101652.06
2023-04-10T18:43:01.528Z,101656.91
2023-04-10T18:45:28.526Z,101658.97
2023-04-10T18:47:55.625Z,101663.78
2023-04-10T18:50:22.703Z,101660.56
2023-04-10T18:52:49.688Z,101663.69
2023-04-10T18:55:16.883Z,101660.56
2023-04-10T18:57:44.017Z,101664.44
2023-04-10T19:00:12.188Z,101665.72
2023-04-10T19:02:39.966Z,101666.88
2023-04-10T19:05:08.531Z,101660.81
2023-04-10T19:07:35.495Z,101663.84
2023-04-10T19:10:03.169Z,101673.97
2023-04-10T19:12:30.432Z,101671.47
2023-04-10T19:14:57.380Z,101670.69
2023-04-10T19:17:24.978Z,101677.06
2023-04-10T19:19:53.302Z,101674.44
2023-04-10T19:22:20.526Z,101676.56
2023-04-10T19:24:47.495Z,101663.41
2023-04-10T19:27:14.486Z,101665.44
2023-04-10T19:29:41.389Z,101668.25
2023-04-10T19:32:09.979Z,101667.59
2023-04-10T19:34:37.009Z,101664.31
2023-04-10T19:37:03.923Z,101662.72
2023-04-10T19:39:30.938Z,101664.84
2023-04-10T19:41:58.324Z,101657.16
2023-04-10T19:44:25.399Z,101662.66
2023-04-10T19:46:52.547Z,101657.47
2023-04-10T19:49:19.813Z,101659.50
2023-04-10T19:51:46.820Z,101663.25
2023-04-10T19:54:13.832Z,101656.22
2023-04-10T19:56:41.034Z,101655.44
2023-04-10T19:59:08.548Z,101654.78
2023-04-10T20:01:35.789Z,101657.69
2023-04-10T20:04:03.273Z,101653.47
2023-04-10T20:06:31.882Z,101637.50
2023-04-10T20:08:59.042Z,101643.00
2023-04-10T20:11:30.535Z,101628.09
2023-04-10T20:13:57.678Z,101636.38
2023-04-10T20:16:26.581Z,101634.06
2023-04-10T20:18:55.467Z,101629.06
2023-04-10T20:21:22.806Z,101636.59
2023-04-10T20:23:49.817Z,101627.88
2023-04-10T20:26:17.508Z,101627.94
2023-04-10T20:28:44.529Z,101624.78
2023-04-10T20:31:12.159Z,101629.53
2023-04-10T20:33:39.187Z,101644.16
2023-04-10T20:36:06.553Z,101652.53
2023-04-10T20:38:33.514Z,101649.22
2023-04-10T20:41:00.450Z,101655.78
2023-04-10T20:43:27.440Z,101669.50
2023-04-10T20:45:54.422Z,101665.19
2023-04-10T20:48:21.491Z,101668.81
2023-04-10T20:50:51.947Z,101674.47
2023-04-10T20:53:18.970Z,101686.38
2023-04-10T20:55:46.029Z,101679.38
2023-04-10T20:58:15.491Z,101680.41
2023-04-10T21:00:43.256Z,101679.72
2023-04-10T21:03:10.717Z,101678.94
2023-04-10T21:05:41.874Z,101683.38
2023-04-10T21:08:10.319Z,101679.16
2023-04-10T21:10:44.033Z,101675.59
2023-04-10T21:13:14.896Z,101667.13
2023-04-10T21:15:43.081Z,101666.16
2023-04-10T21:18:10.668Z,101670.69
2023-04-10T21:20:38.020Z,101683.25
2023-04-10T21:23:05.368Z,101675.19
2023-04-10T21:25:33.648Z,101666.28
2023-04-10T21:28:01.899Z,101661.84
2023-04-10T21:30:29.437Z,101657.34
2023-04-10T21:32:56.588Z,101648.22
2023-04-10T21:35:27.209Z,101649.00
2023-04-10T21:37:57.665Z,101627.56
2023-04-10T21:40:26.238Z,101627.56
2023-04-10T21:42:54.756Z,101623.09
2023-04-10T21:45:22.905Z,101613.38
2023-04-10T21:47:49.962Z,101615.19
2023-04-10T21:50:17.124Z,101615.19
2023-04-10T21:52:44.458Z,101624.31
2023-04-10T21:55:11.575Z,101621.81
2023-04-10T21:57:38.662Z,101615.56
2023-04-10T22:00:08.581Z,101614.72
2023-04-10T22:02:36.546Z,101609.34
2023-04-10T22:05:03.810Z,101615.66
2023-04-10T22:07:30.860Z,101626.50
2023-04-10T22:09:58.322Z,101622.09
2023-04-10T22:12:26.024Z,101630.34
2023-04-10T22:14:53.023Z,101643.00
2023-04-10T22:17:20.144Z,101636.06
2023-04-10T22:19:47.126Z,101631.75
2023-04-10T22:22:16.257Z,101619.47
2023-04-10T22:24:43.264Z,101621.34
2023-04-10T22:27:11.194Z,101622.31
2023-04-10T22:29:38.180Z,101632.28
2023-04-10T22:32:05.447Z,101636.00
2023-04-10T22:34:32.514Z,101639.84
2023-04-10T22:36:59.495Z,101627.28
2023-04-10T22:39:26.581Z,101618.47
2023-04-10T22:41:53.589Z,101628.31
2023-04-10T22:44:20.540Z,101630.91
2023-04-10T22:46:48.412Z,101632.75
2023-04-10T22:49:18.312Z,101628.25
2023-04-10T22:51:48.438Z,101624.75
2023-04-10T22:54:16.183Z,101632.94
2023-04-10T22:56:44.261Z,101625.03
2023-04-10T22:59:11.694Z,101619.06
2023-04-10T23:01:39.121Z,101619.16
2023-04-10T23:04:06.244Z,101604.88
2023-04-10T23:06:33.329Z,101608.50
2023-04-10T23:09:00.569Z,101604.25
2023-04-10T23:11:27.536Z,101615.94
2023-04-10T23:13:54.547Z,101614.19
2023-04-10T23:16:21.571Z,101618.69
2023-04-10T23:18:50.490Z,101611.50
2023-04-10T23:21:17.679Z,101603.44
2023-04-10T23:23:44.791Z,101601.66
2023-04-10T23:26:11.842Z,101597.16
2023-04-10T23:28:39.097Z,101585.56
2023-04-10T23:31:06.619Z,101590.91
2023-04-10T23:33:33.666Z,101581.91
2023-04-10T23:36:00.786Z,101576.59
2023-04-10T23:38:27.814Z,101571.44
2023-04-10T23:40:54.854Z,101566.06
2023-04-10T23:43:21.959Z,101572.38
2023-04-10T23:45:48.993Z,101566.16
2023-04-10T23:48:16.280Z,101563.75
2023-04-10T23:50:43.280Z,101553.94
2023-04-10T23:53:10.862Z,101551.25
2023-04-10T23:55:43.017Z,101554.13
2023-04-10T23:58:10.652Z,101558.72
